createdAt,value
2023-01-07T00:01:17.397Z,1.10
2023-01-07T00:03:47.116Z,1.00
2023-01-07T00:06:15.670Z,1.10
2023-01-07T00:08:46.893Z,0.90
2023-01-07T00:11:16.325Z,1.63
2023-01-07T00:13:44.082Z,0.90
2023-01-07T00:16:12.306Z,1.10
2023-01-07T00:18:40.303Z,0.70
2023-01-07T00:21:10.019Z,0.90
2023-01-07T00:23:38.114Z,0.90
2023-01-07T00:26:06.887Z,1.23
2023-01-07T00:28:35.200Z,1.00
2023-01-07T00:31:03.086Z,1.50
2023-01-07T00:33:30.933Z,0.97
2023-01-07T00:36:01.434Z,0.90
2023-01-07T00:38:30.276Z,1.97
2023-01-07T00:40:57.707Z,0.90
2023-01-07T00:43:25.156Z,1.10
2023-01-07T00:45:52.565Z,0.80
2023-01-07T00:48:20.044Z,1.20
2023-01-07T00:50:48.593Z,0.90
2023-01-07T00:53:16.266Z,2.00
2023-01-07T00:55:45.316Z,0.90
2023-01-07T00:58:15.186Z,1.03
2023-01-07T01:00:42.873Z,2.77
2023-01-07T01:03:11.545Z,0.80
2023-01-07T01:05:39.150Z,0.87
2023-01-07T01:08:07.008Z,0.80
2023-01-07T01:10:34.552Z,0.80
2023-01-07T01:13:03.348Z,0.93
2023-01-07T01:15:30.766Z,0.97
2023-01-07T01:17:58.271Z,1.90
2023-01-07T01:20:25.719Z,0.83
2023-01-07T01:22:53.209Z,0.97
2023-01-07T01:25:20.615Z,0.93
2023-01-07T01:27:48.272Z,1.00
2023-01-07T01:30:17.118Z,0.90
2023-01-07T01:32:44.567Z,0.87
2023-01-07T01:35:12.086Z,1.37
2023-01-07T01:37:39.578Z,0.90
2023-01-07T01:40:07.699Z,1.20
2023-01-07T01:42:35.229Z,1.03
2023-01-07T01:45:02.886Z,0.90
2023-01-07T01:47:34.077Z,0.90
2023-01-07T01:50:05.575Z,0.87
2023-01-07T01:52:36.850Z,0.80
2023-01-07T01:55:06.069Z,0.80
2023-01-07T01:57:35.266Z,1.10
2023-01-07T02:00:03.017Z,0.93
2023-01-07T02:02:33.207Z,1.20
2023-01-07T02:05:02.203Z,0.90
2023-01-07T02:07:29.663Z,4.30
2023-01-07T02:09:59.555Z,0.97
2023-01-07T02:12:32.081Z,1.43
2023-01-07T02:15:08.698Z,1.00
2023-01-07T02:17:40.724Z,0.73
2023-01-07T02:20:35.480Z,1.10
2023-01-07T02:23:13.716Z,1.03
2023-01-07T02:25:57.776Z,2.30
2023-01-07T02:28:38.237Z,1.60
2023-01-07T02:31:14.346Z,1.17
2023-01-07T02:33:52.158Z,1.90
2023-01-07T02:36:24.716Z,1.03
2023-01-07T02:38:57.425Z,1.73
2023-01-07T02:41:29.085Z,1.00
2023-01-07T02:44:02.525Z,1.00
2023-01-07T02:46:33.020Z,0.97
2023-01-07T02:49:02.058Z,0.97
2023-01-07T02:51:33.500Z,0.93
2023-01-07T02:54:01.795Z,1.03
2023-01-07T02:56:33.996Z,1.93
2023-01-07T02:59:16.280Z,1.03
2023-01-07T03:01:51.035Z,1.10
2023-01-07T03:04:27.522Z,0.90
2023-01-07T03:07:02.685Z,3.00
2023-01-07T03:09:33.555Z,1.00
2023-01-07T03:12:06.136Z,1.07
2023-01-07T03:14:37.587Z,1.10
2023-01-07T03:17:07.553Z,1.10
2023-01-07T03:19:39.284Z,1.33
2023-01-07T03:22:08.540Z,2.10
2023-01-07T03:24:36.657Z,1.10
2023-01-07T03:27:05.486Z,1.30
2023-01-07T03:29:35.601Z,1.40
2023-01-07T03:32:05.701Z,1.90
2023-01-07T03:34:33.870Z,1.43
2023-01-07T03:37:04.383Z,0.93
2023-01-07T03:39:32.700Z,1.87
2023-01-07T03:42:17.465Z,1.00
2023-01-07T03:44:45.282Z,2.60
2023-01-07T03:47:13.372Z,1.20
2023-01-07T03:49:40.847Z,1.40
2023-01-07T03:52:09.722Z,1.33
2023-01-07T03:54:37.206Z,1.07
2023-01-07T03:57:04.972Z,1.10
2023-01-07T03:59:32.437Z,1.10
2023-01-07T04:02:00.000Z,1.10
2023-01-07T04:04:27.516Z,1.10
2023-01-07T04:06:55.052Z,1.70
2023-01-07T04:09:23.861Z,1.20
2023-01-07T04:11:51.394Z,1.17
2023-01-07T04:14:18.867Z,1.40
2023-01-07T04:16:46.370Z,1.93
2023-01-07T04:19:13.920Z,1.07
2023-01-07T04:21:41.311Z,2.63
2023-01-07T04:24:09.088Z,1.23
2023-01-07T04:26:37.888Z,1.10
2023-01-07T04:29:05.361Z,1.97
2023-01-07T04:31:34.086Z,1.33
2023-01-07T04:34:01.559Z,6.43
2023-01-07T04:36:29.113Z,1.37
2023-01-07T04:38:56.648Z,1.40
2023-01-07T04:41:24.160Z,2.40
2023-01-07T04:43:53.044Z,1.63
2023-01-07T04:46:20.619Z,1.10
2023-01-07T04:48:48.171Z,1.10
2023-01-07T04:51:15.814Z,1.30
2023-01-07T04:53:43.220Z,1.10
2023-01-07T04:56:10.704Z,1.10
2023-01-07T04:58:38.100Z,1.67
2023-01-07T05:01:07.159Z,1.73
2023-01-07T05:03:35.613Z,1.40
2023-01-07T05:06:03.550Z,1.37
2023-01-07T05:08:31.116Z,1.40
2023-01-07T05:10:58.576Z,1.67
2023-01-07T05:13:25.952Z,1.40
2023-01-07T05:15:53.392Z,1.43
2023-01-07T05:18:22.122Z,1.40
2023-01-07T05:20:49.579Z,2.40
2023-01-07T05:23:17.004Z,1.30
2023-01-07T05:25:44.400Z,2.30
2023-01-07T05:28:12.550Z,1.43
2023-01-07T05:30:40.074Z,1.23
2023-01-07T05:33:08.714Z,1.10
2023-01-07T05:35:37.478Z,1.57
2023-01-07T05:38:05.009Z,1.60
2023-01-07T05:40:32.435Z,1.40
2023-01-07T05:42:59.873Z,1.20
2023-01-07T05:45:27.300Z,1.20
2023-01-07T05:47:54.822Z,1.30
2023-01-07T05:50:22.288Z,1.30
2023-01-07T05:52:52.846Z,4.83
2023-01-07T05:55:20.353Z,1.20
2023-01-07T05:57:47.769Z,1.37
2023-01-07T06:00:15.636Z,1.33
2023-01-07T06:02:43.078Z,1.83
2023-01-07T06:05:10.926Z,2.13
2023-01-07T06:07:38.403Z,1.40
2023-01-07T06:10:07.655Z,3.43
2023-01-07T06:12:35.144Z,1.00
2023-01-07T06:15:02.538Z,1.70
2023-01-07T06:17:29.955Z,1.30
2023-01-07T06:19:57.470Z,1.00
2023-01-07T06:22:24.900Z,1.17
2023-01-07T06:24:52.323Z,1.00
2023-01-07T06:27:21.522Z,0.80
2023-01-07T06:29:48.960Z,1.00
2023-01-07T06:32:16.419Z,1.10
2023-01-07T06:34:43.889Z,1.10
2023-01-07T06:37:11.343Z,1.00
2023-01-07T06:39:38.812Z,7.73
2023-01-07T06:42:06.273Z,1.20
2023-01-07T06:44:35.367Z,1.57
2023-01-07T06:47:03.040Z,0.90
2023-01-07T06:49:30.414Z,2.00
2023-01-07T06:51:57.796Z,0.93
2023-01-07T06:54:25.184Z,0.90
2023-01-07T06:56:52.628Z,0.90
2023-01-07T06:59:20.123Z,0.83
2023-01-07T07:01:49.042Z,0.70
2023-01-07T07:04:16.504Z,0.90
2023-01-07T07:06:43.988Z,2.10
2023-01-07T07:09:11.719Z,0.90
2023-01-07T07:11:39.219Z,2.30
2023-01-07T07:14:06.679Z,0.97
2023-01-07T07:16:34.099Z,0.83
2023-01-07T07:19:02.948Z,1.67
2023-01-07T07:21:30.350Z,0.90
2023-01-07T07:23:57.999Z,1.70
2023-01-07T07:26:25.426Z,2.47
2023-01-07T07:28:52.852Z,1.70
2023-01-07T07:31:20.364Z,1.33
2023-01-07T07:33:47.817Z,1.43
2023-01-07T07:36:16.557Z,1.20
2023-01-07T07:38:44.004Z,2.93
2023-01-07T07:41:11.395Z,1.00
2023-01-07T07:43:38.844Z,1.30
2023-01-07T07:46:06.457Z,1.00
2023-01-07T07:48:33.913Z,1.00
2023-01-07T07:51:01.353Z,1.50
2023-01-07T07:53:30.117Z,1.00
2023-01-07T07:55:57.641Z,1.57
2023-01-07T07:58:25.248Z,1.43
2023-01-07T08:00:53.633Z,1.00
2023-01-07T08:03:21.225Z,1.10
2023-01-07T08:05:48.730Z,1.13
2023-01-07T08:08:16.150Z,2.40
2023-01-07T08:10:45.008Z,0.90
2023-01-07T08:13:12.465Z,1.27
2023-01-07T08:15:39.833Z,1.00
2023-01-07T08:18:08.010Z,1.20
2023-01-07T08:20:36.434Z,1.03
2023-01-07T08:23:04.371Z,1.20
2023-01-07T08:25:32.530Z,1.27
2023-01-07T08:28:01.683Z,1.20
2023-01-07T08:30:29.708Z,1.40
2023-01-07T08:32:57.580Z,1.80
2023-01-07T08:35:25.047Z,1.00
2023-01-07T08:37:52.517Z,7.07
2023-01-07T08:40:20.100Z,3.30
2023-01-07T08:42:47.564Z,1.13
2023-01-07T08:45:16.348Z,2.03
2023-01-07T08:47:47.039Z,1.13
2023-01-07T08:50:14.565Z,1.33
2023-01-07T08:52:41.991Z,1.60
2023-01-07T08:55:09.846Z,1.30
2023-01-07T08:57:37.370Z,1.40
2023-01-07T09:00:05.335Z,1.53
2023-01-07T09:02:34.178Z,1.70
2023-01-07T09:05:01.742Z,1.90
2023-01-07T09:07:29.392Z,2.30
2023-01-07T09:09:56.821Z,2.13
2023-01-07T09:12:24.238Z,2.03
2023-01-07T09:14:51.600Z,3.83
2023-01-07T09:17:19.100Z,2.57
2023-01-07T09:19:47.825Z,2.13
2023-01-07T09:22:15.271Z,2.40
2023-01-07T09:24:42.669Z,4.30
2023-01-07T09:27:10.100Z,2.50
2023-01-07T09:29:37.487Z,2.30
2023-01-07T09:32:04.997Z,2.37
2023-01-07T09:34:32.632Z,2.27
2023-01-07T09:37:01.406Z,2.43
2023-01-07T09:39:29.135Z,2.40
2023-01-07T09:41:59.515Z,2.63
2023-01-07T09:44:32.475Z,2.53
2023-01-07T09:47:00.483Z,2.30
2023-01-07T09:49:31.034Z,2.60
2023-01-07T09:52:02.761Z,2.70
2023-01-07T09:54:34.353Z,2.47
2023-01-07T09:57:01.798Z,3.00
2023-01-07T09:59:29.291Z,3.23
2023-01-07T10:02:01.232Z,2.80
2023-01-07T10:04:35.410Z,2.73
2023-01-07T10:07:06.823Z,2.80
2023-01-07T10:09:39.421Z,2.70
2023-01-07T10:12:11.349Z,2.80
2023-01-07T10:14:45.084Z,2.87
2023-01-07T10:17:19.471Z,2.23
2023-01-07T10:19:52.701Z,2.90
2023-01-07T10:22:22.739Z,2.30
2023-01-07T10:24:53.864Z,2.20
2023-01-07T10:27:31.348Z,2.50
2023-01-07T10:30:01.705Z,2.30
2023-01-07T10:32:30.895Z,2.50
2023-01-07T10:34:59.932Z,2.30
2023-01-07T10:37:29.332Z,2.40
2023-01-07T10:40:01.979Z,2.13
2023-01-07T10:42:33.633Z,2.90
2023-01-07T10:45:08.110Z,2.10
2023-01-07T10:47:42.207Z,2.30
2023-01-07T10:50:20.860Z,2.00
2023-01-07T10:52:50.067Z,2.10
2023-01-07T10:55:24.447Z,2.20
2023-01-07T10:57:51.995Z,1.30
2023-01-07T11:00:19.993Z,1.40
2023-01-07T11:02:51.024Z,1.50
2023-01-07T11:05:21.058Z,1.50
2023-01-07T11:07:51.112Z,1.33
2023-01-07T11:10:20.089Z,2.30
2023-01-07T11:12:50.399Z,1.50
2023-01-07T11:15:20.256Z,5.73
2023-01-07T11:17:49.893Z,1.37
2023-01-07T11:20:41.868Z,2.37
2023-01-07T11:23:19.411Z,1.27
2023-01-07T11:25:47.415Z,1.20
2023-01-07T11:28:19.966Z,1.10
2023-01-07T11:30:56.193Z,1.20
2023-01-07T11:34:01.834Z,1.10
2023-01-07T11:36:12.929Z,0.90
2023-01-07T11:38:40.813Z,1.27
2023-01-07T11:41:09.089Z,1.47
2023-01-07T11:43:39.625Z,1.20
2023-01-07T11:46:21.384Z,1.47
2023-01-07T11:48:52.706Z,1.10
2023-01-07T11:51:21.200Z,1.13
2023-01-07T11:53:52.419Z,1.10
2023-01-07T11:56:24.291Z,2.93
2023-01-07T11:58:53.820Z,1.10
2023-01-07T12:01:22.238Z,1.13
2023-01-07T12:04:13.324Z,1.20
2023-01-07T12:06:42.847Z,1.17
2023-01-07T12:09:17.743Z,1.50
2023-01-07T12:11:46.251Z,1.13
2023-01-07T12:14:20.654Z,1.40
2023-01-07T12:16:49.655Z,1.20
2023-01-07T12:19:22.558Z,1.23
2023-01-07T12:21:59.360Z,0.93
2023-01-07T12:24:37.237Z,1.00
2023-01-07T12:27:08.705Z,1.20
2023-01-07T12:29:42.134Z,1.00
2023-01-07T12:32:15.147Z,1.00
2023-01-07T12:34:49.105Z,1.57
2023-01-07T12:37:23.209Z,1.10
2023-01-07T12:39:56.013Z,1.43
2023-01-07T12:42:26.618Z,1.00
2023-01-07T12:44:58.090Z,1.10
2023-01-07T12:47:32.077Z,1.20
2023-01-07T12:50:03.937Z,1.20
2023-01-07T12:52:36.701Z,1.80
2023-01-07T12:55:05.181Z,0.93
2023-01-07T12:57:35.095Z,1.10
2023-01-07T13:00:09.473Z,1.23
2023-01-07T13:02:40.226Z,1.43
2023-01-07T13:05:12.702Z,1.00
2023-01-07T13:07:43.939Z,1.10
2023-01-07T13:10:15.109Z,1.30
2023-01-07T13:12:46.614Z,3.70
2023-01-07T13:15:21.900Z,1.10
2023-01-07T13:17:50.222Z,1.10
2023-01-07T13:20:18.516Z,1.17
2023-01-07T13:22:47.657Z,1.17
2023-01-07T13:25:22.790Z,1.17
2023-01-07T13:28:04.804Z,1.20
2023-01-07T13:30:38.228Z,1.00
2023-01-07T13:33:11.447Z,1.00
2023-01-07T13:35:46.843Z,1.03
2023-01-07T13:38:21.932Z,1.30
2023-01-07T13:41:03.064Z,1.40
2023-01-07T13:43:40.290Z,1.30
2023-01-07T13:46:13.285Z,1.40
2023-01-07T13:48:41.458Z,1.60
2023-01-07T13:51:09.975Z,1.20
2023-01-07T13:53:47.348Z,1.20
2023-01-07T13:56:30.825Z,3.00
2023-01-07T13:59:00.427Z,1.37
2023-01-07T14:01:30.860Z,1.00
2023-01-07T14:03:58.850Z,1.30
2023-01-07T14:06:34.046Z,2.30
2023-01-07T14:09:13.498Z,1.00
2023-01-07T14:11:47.609Z,1.20
2023-01-07T14:14:18.719Z,1.30
2023-01-07T14:16:53.007Z,1.50
2023-01-07T14:19:27.432Z,1.33
2023-01-07T14:22:10.516Z,1.50
2023-01-07T14:24:49.950Z,1.70
2023-01-07T14:27:26.777Z,1.37
2023-01-07T14:29:59.487Z,1.80
2023-01-07T14:32:33.225Z,1.47
2023-01-07T14:35:02.869Z,1.30
2023-01-07T14:37:31.522Z,1.60
2023-01-07T14:39:59.093Z,1.50
2023-01-07T14:42:27.792Z,1.90
2023-01-07T14:44:55.263Z,1.83
2023-01-07T14:47:41.599Z,1.90
2023-01-07T14:50:20.213Z,2.50
2023-01-07T14:53:00.386Z,1.80
2023-01-07T14:55:38.827Z,2.10
2023-01-07T14:58:15.020Z,1.70
2023-01-07T15:00:53.798Z,1.97
2023-01-07T15:03:37.220Z,2.00
2023-01-07T15:06:11.935Z,1.97
2023-01-07T15:09:06.300Z,2.07
2023-01-07T15:11:52.068Z,2.03
2023-01-07T15:14:43.565Z,1.80
2023-01-07T15:17:12.656Z,1.90
2023-01-07T15:19:41.064Z,1.80
2023-01-07T15:22:15.015Z,1.70
2023-01-07T15:24:45.452Z,1.90
2023-01-07T15:27:15.734Z,2.03
2023-01-07T15:29:49.533Z,2.10
2023-01-07T15:32:24.787Z,1.67
2023-01-07T15:34:52.356Z,1.70
2023-01-07T15:37:21.461Z,1.87
2023-01-07T15:39:52.024Z,2.50
2023-01-07T15:42:21.202Z,1.70
2023-01-07T15:44:49.667Z,1.77
2023-01-07T15:47:34.478Z,2.13
2023-01-07T15:50:22.686Z,2.13
2023-01-07T15:52:52.132Z,1.90
2023-01-07T15:55:26.530Z,1.90
2023-01-07T15:57:57.104Z,2.20
2023-01-07T16:00:25.877Z,2.23
2023-01-07T16:02:53.478Z,1.90
2023-01-07T16:05:21.108Z,2.27
2023-01-07T16:07:53.950Z,2.20
2023-01-07T16:10:22.448Z,2.27
2023-01-07T16:12:50.551Z,2.20
2023-01-07T16:15:24.916Z,2.10
2023-01-07T16:17:52.485Z,2.27
2023-01-07T16:20:24.078Z,1.93
2023-01-07T16:22:54.320Z,2.40
2023-01-07T16:25:23.939Z,3.53
2023-01-07T16:27:51.917Z,2.00
2023-01-07T16:30:19.565Z,2.00
2023-01-07T16:32:47.398Z,2.40
2023-01-07T16:35:18.293Z,2.30
2023-01-07T16:37:46.387Z,3.53
2023-01-07T16:40:20.379Z,2.87
2023-01-07T16:42:48.223Z,4.13
2023-01-07T16:45:23.747Z,9.93
2023-01-07T16:48:00.666Z,3.93
2023-01-07T16:50:31.256Z,5.13
2023-01-07T16:52:59.211Z,5.10
2023-01-07T16:55:45.315Z,3.80
2023-01-07T16:58:18.011Z,3.37
2023-01-07T17:00:49.521Z,3.10
2023-01-07T17:03:17.180Z,2.93
2023-01-07T17:05:57.876Z,3.60
2023-01-07T17:08:25.395Z,3.87
2023-01-07T17:10:57.345Z,3.60
2023-01-07T17:13:32.927Z,2.97
2023-01-07T17:16:15.998Z,2.90
2023-01-07T17:18:43.587Z,2.93
2023-01-07T17:21:32.007Z,3.37
2023-01-07T17:23:59.775Z,3.20
2023-01-07T17:26:27.822Z,2.80
2023-01-07T17:28:57.823Z,3.03
2023-01-07T17:31:25.441Z,3.00
2023-01-07T17:33:53.627Z,3.40
2023-01-07T17:36:21.749Z,2.53
2023-01-07T17:38:49.509Z,2.70
2023-01-07T17:41:32.181Z,2.60
2023-01-07T17:44:01.585Z,3.40
2023-01-07T17:46:29.907Z,2.80
2023-01-07T17:48:57.420Z,3.00
2023-01-07T17:51:25.194Z,2.93
2023-01-07T17:53:53.419Z,2.90
2023-01-07T17:56:21.047Z,2.93
2023-01-07T17:58:48.482Z,2.90
2023-01-07T18:01:18.427Z,2.80
2023-01-07T18:03:47.478Z,3.20
2023-01-07T18:06:17.428Z,4.67
2023-01-07T18:08:45.160Z,3.17
2023-01-07T18:11:32.014Z,3.40
2023-01-07T18:13:59.516Z,3.50
2023-01-07T18:16:28.383Z,2.90
2023-01-07T18:18:56.528Z,2.67
2023-01-07T18:21:24.178Z,3.47
2023-01-07T18:23:51.612Z,3.10
2023-01-07T18:26:19.790Z,3.13
2023-01-07T18:28:48.197Z,3.43
2023-01-07T18:31:15.760Z,3.47
2023-01-07T18:33:44.607Z,3.40
2023-01-07T18:36:12.503Z,5.00
2023-01-07T18:38:40.394Z,3.80
2023-01-07T18:41:07.880Z,3.83
2023-01-07T18:43:35.384Z,3.87
2023-01-07T18:46:02.849Z,3.80
2023-01-07T18:48:30.345Z,3.53
2023-01-07T18:50:59.109Z,3.20
2023-01-07T18:53:27.273Z,3.07
2023-01-07T18:55:58.411Z,3.33
2023-01-07T18:58:26.789Z,4.67
2023-01-07T19:00:54.612Z,4.10
2023-01-07T19:03:22.098Z,3.57
2023-01-07T19:05:49.539Z,4.63
2023-01-07T19:08:18.439Z,4.17
2023-01-07T19:10:46.004Z,4.73
2023-01-07T19:13:13.539Z,3.97
2023-01-07T19:15:41.741Z,4.83
2023-01-07T19:18:09.385Z,5.27
2023-01-07T19:20:36.990Z,6.97
2023-01-07T19:23:04.368Z,6.10
2023-01-07T19:25:33.128Z,7.10
2023-01-07T19:28:00.554Z,8.20
2023-01-07T19:30:28.133Z,9.87
2023-01-07T19:32:55.673Z,8.23
2023-01-07T19:35:23.105Z,5.30
2023-01-07T19:37:51.145Z,4.17
2023-01-07T19:40:18.688Z,4.00
2023-01-07T19:42:47.827Z,4.33
2023-01-07T19:45:15.258Z,3.40
2023-01-07T19:47:43.915Z,4.10
2023-01-07T19:50:12.058Z,4.13
2023-01-07T19:52:39.510Z,4.73
2023-01-07T19:55:07.518Z,3.83
2023-01-07T19:57:35.042Z,4.07
2023-01-07T20:00:03.984Z,3.83
2023-01-07T20:02:31.562Z,4.47
2023-01-07T20:04:59.200Z,4.10
2023-01-07T20:07:26.628Z,5.23
2023-01-07T20:09:54.063Z,5.63
2023-01-07T20:12:21.542Z,5.00
2023-01-07T20:14:48.998Z,7.00
2023-01-07T20:17:17.737Z,6.00
2023-01-07T20:19:45.569Z,7.00
2023-01-07T20:22:13.028Z,8.10
2023-01-07T20:24:40.455Z,6.23
2023-01-07T20:27:07.907Z,6.90
2023-01-07T20:29:36.778Z,7.93
2023-01-07T20:32:07.385Z,8.03
2023-01-07T20:34:36.237Z,5.27
2023-01-07T20:37:04.282Z,3.40
2023-01-07T20:39:31.750Z,3.30
2023-01-07T20:41:59.139Z,3.37
2023-01-07T20:44:26.599Z,3.13
2023-01-07T20:46:54.018Z,2.87
2023-01-07T20:49:23.192Z,5.57
2023-01-07T20:51:52.151Z,4.47
2023-01-07T20:54:19.809Z,3.60
2023-01-07T20:56:47.246Z,2.50
2023-01-07T20:59:15.920Z,3.23
2023-01-07T21:01:43.729Z,2.77
2023-01-07T21:04:12.490Z,2.30
2023-01-07T21:06:40.021Z,2.77
2023-01-07T21:09:08.907Z,2.50
2023-01-07T21:11:36.363Z,2.57
2023-01-07T21:14:04.082Z,3.17
2023-01-07T21:16:32.659Z,5.90
2023-01-07T21:19:00.143Z,2.53
2023-01-07T21:21:27.701Z,2.47
2023-01-07T21:23:55.459Z,2.80
2023-01-07T21:26:24.875Z,3.03
2023-01-07T21:28:53.297Z,2.30
2023-01-07T21:31:20.778Z,4.60
2023-01-07T21:33:48.460Z,2.73
2023-01-07T21:36:17.073Z,2.47
2023-01-07T21:38:44.871Z,2.50
2023-01-07T21:41:13.483Z,2.50
2023-01-07T21:43:42.381Z,2.33
2023-01-07T21:46:10.306Z,2.43
2023-01-07T21:48:38.781Z,2.60
2023-01-07T21:51:07.783Z,3.17
2023-01-07T21:53:35.894Z,2.30
2023-01-07T21:56:05.986Z,2.37
2023-01-07T21:58:33.438Z,2.20
2023-01-07T22:01:02.426Z,2.40
2023-01-07T22:03:29.965Z,2.23
2023-01-07T22:05:57.929Z,3.17
2023-01-07T22:08:25.602Z,2.33
2023-01-07T22:10:53.058Z,2.70
2023-01-07T22:13:20.791Z,2.30
2023-01-07T22:15:48.219Z,2.47
2023-01-07T22:18:17.025Z,2.60
2023-01-07T22:20:44.592Z,3.13
2023-01-07T22:23:15.865Z,3.20
2023-01-07T22:25:43.281Z,2.63
2023-01-07T22:28:11.257Z,2.27
2023-01-07T22:30:41.496Z,2.20
2023-01-07T22:33:08.948Z,2.20
2023-01-07T22:35:37.886Z,2.57
2023-01-07T22:38:05.925Z,2.40
2023-01-07T22:40:34.793Z,2.57
2023-01-07T22:43:05.277Z,2.40
2023-01-07T22:45:37.279Z,2.23
2023-01-07T22:48:05.305Z,2.20
2023-01-07T22:50:32.855Z,2.73
2023-01-07T22:53:01.850Z,2.30
2023-01-07T22:55:29.537Z,2.17
2023-01-07T22:57:57.016Z,1.90
2023-01-07T23:00:40.132Z,2.00
2023-01-07T23:03:07.607Z,1.87
2023-01-07T23:05:37.788Z,1.70
2023-01-07T23:08:07.348Z,2.23
2023-01-07T23:10:36.065Z,1.90
2023-01-07T23:13:03.508Z,1.50
2023-01-07T23:15:30.929Z,1.83
2023-01-07T23:17:58.385Z,1.93
2023-01-07T23:20:26.042Z,2.10
2023-01-07T23:22:53.531Z,1.90
2023-01-07T23:25:22.318Z,2.30
2023-01-07T23:27:49.748Z,1.90
2023-01-07T23:30:17.178Z,1.67
2023-01-07T23:32:45.186Z,1.90
2023-01-07T23:35:12.748Z,1.40
2023-01-07T23:37:40.240Z,1.80
2023-01-07T23:40:08.220Z,1.77
2023-01-07T23:42:37.237Z,1.90
2023-01-07T23:45:07.085Z,1.53
2023-01-07T23:47:34.582Z,1.70
2023-01-07T23:50:02.095Z,2.10
2023-01-07T23:52:30.039Z,2.00
2023-01-07T23:54:57.495Z,1.87
2023-01-07T23:57:25.020Z,1.80
2023-01-07T23:59:53.796Z,1.50
